Jackass Flats, Nevada
Current Conditions -  °F | °C
As of 4:52 AM on Wednesday 26 Nov 2014 (Local Time) from KDRA Reporting Station
Clear Clear  
Wind Chill: 33°   Ceiling: Unl
Heat Index: 37°   Visibility: 10mi
Dew Point:   Wind: 5mph
Humidity: 30%   Direction: 90°E
Pressure: 30.38"   Gusts: NA
Location:  36.6649°N, 115.998°W
Report Text: KDRA 261252Z AUTO 09004KT 10SM CLR 03/M13 A3038 RMK AO2 SLP276 T00281133 $
Loading
Personal Weather Stations






























Interactive Weather Map New forecast layout! Learn more

10-Day Weather Forecast

Advertisements
Track Severe Weather on mobile